createdAt,value
2019-01-29T00:00:11.783Z,996.82
2019-01-29T00:01:11.786Z,996.81
2019-01-29T00:02:11.709Z,996.80
2019-01-29T00:03:11.707Z,996.83
2019-01-29T00:04:11.651Z,996.82
2019-01-29T00:05:11.717Z,996.83
2019-01-29T00:06:11.595Z,996.80
2019-01-29T00:07:11.623Z,996.82
2019-01-29T00:08:11.529Z,996.87
2019-01-29T00:09:11.531Z,996.84
2019-01-29T00:10:11.459Z,996.85
2019-01-29T00:11:11.444Z,996.82
2019-01-29T00:12:11.392Z,996.87
2019-01-29T00:13:11.458Z,996.85
2019-01-29T00:14:11.335Z,996.83
2019-01-29T00:15:11.377Z,996.84
2019-01-29T00:16:11.283Z,996.84
2019-01-29T00:17:11.300Z,996.83
2019-01-29T00:18:11.206Z,996.81
2019-01-29T00:19:11.203Z,996.84
2019-01-29T00:20:11.142Z,996.82
2019-01-29T00:21:11.221Z,996.82
2019-01-29T00:22:11.075Z,996.80
2019-01-29T00:23:11.127Z,996.83
2019-01-29T00:24:11.016Z,996.85
2019-01-29T00:25:11.033Z,996.82
2019-01-29T00:26:10.950Z,996.78
2019-01-29T00:27:10.940Z,996.78
2019-01-29T00:28:10.890Z,996.79
2019-01-29T00:29:10.955Z,996.81
2019-01-29T00:30:10.827Z,996.77
2019-01-29T00:31:10.861Z,996.77
2019-01-29T00:32:10.789Z,996.79
2019-01-29T00:33:10.817Z,996.80
2019-01-29T00:34:10.708Z,996.82
2019-01-29T00:35:10.705Z,996.77
2019-01-29T00:36:10.633Z,996.79
2019-01-29T00:37:10.720Z,996.75
2019-01-29T00:38:10.591Z,996.81
2019-01-29T00:39:10.658Z,996.77
2019-01-29T00:40:10.513Z,996.79
2019-01-29T00:41:10.537Z,996.80
2019-01-29T00:42:10.445Z,996.82
2019-01-29T00:43:12.369Z,996.84
2019-01-29T00:44:10.383Z,996.85
2019-01-29T00:45:10.402Z,996.90
2019-01-29T00:46:10.306Z,996.88
2019-01-29T00:47:10.313Z,996.91
2019-01-29T00:48:10.247Z,996.89
2019-01-29T00:49:10.317Z,996.92
2019-01-29T00:50:10.302Z,996.92
2019-01-29T00:51:10.222Z,996.94
2019-01-29T00:52:10.121Z,996.92
2019-01-29T00:53:11.160Z,996.93
2019-01-29T00:54:10.057Z,996.90
2019-01-29T00:55:10.049Z,996.95
2019-01-29T00:56:10.039Z,996.95
2019-01-29T00:57:10.053Z,996.95
2019-01-29T00:58:09.943Z,996.97
2019-01-29T00:59:09.967Z,996.93
2019-01-29T01:00:09.876Z,996.97
2019-01-29T01:01:09.915Z,996.94
2019-01-29T01:02:09.808Z,996.99
2019-01-29T01:03:09.795Z,996.97
2019-01-29T01:04:09.773Z,997.01
2019-01-29T01:05:09.817Z,997.01
2019-01-29T01:06:09.671Z,997.03
2019-01-29T01:07:09.720Z,996.97
2019-01-29T01:08:09.614Z,997.02
2019-01-29T01:09:09.617Z,997.05
2019-01-29T01:10:09.566Z,997.01
2019-01-29T01:11:09.542Z,996.97
2019-01-29T01:12:09.489Z,997.07
2019-01-29T01:13:09.559Z,997.04
2019-01-29T01:14:09.430Z,997.14
2019-01-29T01:15:09.468Z,997.10
2019-01-29T01:16:09.361Z,997.10
2019-01-29T01:17:09.375Z,997.13
2019-01-29T01:18:09.291Z,997.15
2019-01-29T01:19:09.277Z,997.19
2019-01-29T01:20:09.221Z,997.20
2019-01-29T01:21:09.294Z,997.19
2019-01-29T01:22:09.160Z,997.22
2019-01-29T01:23:09.703Z,997.24
2019-01-29T01:24:09.100Z,997.26
2019-01-29T01:25:09.117Z,997.28
2019-01-29T01:26:09.029Z,997.29
2019-01-29T01:27:09.021Z,997.29
2019-01-29T01:28:08.976Z,997.36
2019-01-29T01:29:09.059Z,997.30
2019-01-29T01:30:08.909Z,997.34
2019-01-29T01:31:08.950Z,997.40
2019-01-29T01:32:08.847Z,997.38
2019-01-29T01:33:08.867Z,997.37
2019-01-29T01:34:08.777Z,997.38
2019-01-29T01:35:08.763Z,997.38
2019-01-29T01:36:08.717Z,997.40
2019-01-29T01:37:08.784Z,997.46
2019-01-29T01:38:08.672Z,997.44
2019-01-29T01:39:08.691Z,997.46
2019-01-29T01:40:08.634Z,997.46
2019-01-29T01:41:08.602Z,997.48
2019-01-29T01:42:08.517Z,997.44
2019-01-29T01:43:08.521Z,997.47
2019-01-29T01:44:08.481Z,997.48
2019-01-29T01:45:08.522Z,997.51
2019-01-29T01:46:08.393Z,997.49
2019-01-29T01:47:08.440Z,997.49
2019-01-29T01:48:08.340Z,997.57
2019-01-29T01:49:08.348Z,997.53
2019-01-29T01:50:08.268Z,997.60
2019-01-29T01:51:08.282Z,997.54
2019-01-29T01:52:08.209Z,997.54
2019-01-29T01:53:08.275Z,997.58
2019-01-29T01:54:08.144Z,997.55
2019-01-29T01:55:08.178Z,997.54
2019-01-29T01:56:08.078Z,997.57
2019-01-29T01:57:09.111Z,997.55
2019-01-29T01:58:08.007Z,997.55
2019-01-29T01:59:08.008Z,997.49
2019-01-29T02:00:07.942Z,997.48
2019-01-29T02:01:08.021Z,997.50
2019-01-29T02:02:07.911Z,997.58
2019-01-29T02:03:07.922Z,997.57
2019-01-29T02:04:07.823Z,997.61
2019-01-29T02:05:07.861Z,997.59
2019-01-29T02:06:07.747Z,997.59
2019-01-29T02:07:07.750Z,997.64
2019-01-29T02:08:07.691Z,997.69
2019-01-29T02:09:07.757Z,997.69
2019-01-29T02:10:07.632Z,997.66
2019-01-29T02:11:07.674Z,997.66
2019-01-29T02:12:07.569Z,997.67
2019-01-29T02:13:07.593Z,997.65
2019-01-29T02:14:07.519Z,997.70
2019-01-29T02:15:07.492Z,997.69
2019-01-29T02:16:07.436Z,997.68
2019-01-29T02:17:07.505Z,997.69
2019-01-29T02:18:07.371Z,997.68
2019-01-29T02:19:07.415Z,997.71
2019-01-29T02:20:07.303Z,997.72
2019-01-29T02:21:07.324Z,997.69
2019-01-29T02:22:07.252Z,997.72
2019-01-29T02:23:08.050Z,997.74
2019-01-29T02:24:07.194Z,997.72
2019-01-29T02:25:07.248Z,997.77
2019-01-29T02:26:07.245Z,997.77
2019-01-29T02:27:07.137Z,997.80
2019-01-29T02:28:07.073Z,997.80
2019-01-29T02:29:07.041Z,997.76
2019-01-29T02:30:07.102Z,997.82
2019-01-29T02:31:06.955Z,997.81
2019-01-29T02:32:06.933Z,997.84
2019-01-29T02:33:06.897Z,997.85
2019-01-29T02:34:06.893Z,997.82
2019-01-29T02:35:06.830Z,997.83
2019-01-29T02:36:06.820Z,997.82
2019-01-29T02:37:06.778Z,997.86
2019-01-29T02:38:06.823Z,997.83
2019-01-29T02:39:06.731Z,997.85
2019-01-29T02:40:06.737Z,997.84
2019-01-29T02:41:06.632Z,997.88
2019-01-29T02:42:06.651Z,997.90
2019-01-29T02:43:06.567Z,997.89
2019-01-29T02:44:06.659Z,997.90
2019-01-29T02:45:06.505Z,997.93
2019-01-29T02:46:06.565Z,997.89
2019-01-29T02:47:06.442Z,997.93
2019-01-29T02:48:06.476Z,997.99
2019-01-29T02:49:06.380Z,998.03
2019-01-29T02:50:06.391Z,997.94
2019-01-29T02:51:06.309Z,997.99
2019-01-29T02:52:06.304Z,997.99
2019-01-29T02:53:06.250Z,998.00
2019-01-29T02:54:06.316Z,998.04
2019-01-29T02:55:06.186Z,998.01
2019-01-29T02:56:06.224Z,998.03
2019-01-29T02:57:06.129Z,997.96
2019-01-29T02:58:06.168Z,998.02
2019-01-29T02:59:06.053Z,997.99
2019-01-29T03:00:06.051Z,998.03
2019-01-29T03:01:05.997Z,997.98
2019-01-29T03:02:06.050Z,998.00
2019-01-29T03:03:05.924Z,998.00
2019-01-29T03:04:05.969Z,998.00
2019-01-29T03:05:05.866Z,998.01
2019-01-29T03:06:05.875Z,997.96
2019-01-29T03:07:05.796Z,997.99
2019-01-29T03:08:05.796Z,998.02
2019-01-29T03:09:05.740Z,998.01
2019-01-29T03:10:05.798Z,997.97
2019-01-29T03:11:05.770Z,998.00
2019-01-29T03:12:05.726Z,998.00
2019-01-29T03:13:05.605Z,997.96
2019-01-29T03:14:05.651Z,997.92
2019-01-29T03:15:05.540Z,997.96
2019-01-29T03:16:05.562Z,997.96
2019-01-29T03:17:05.487Z,997.96
2019-01-29T03:18:05.554Z,997.97
2019-01-29T03:19:05.411Z,998.00
2019-01-29T03:20:05.495Z,997.95
2019-01-29T03:21:05.347Z,997.95
2019-01-29T03:22:05.381Z,997.95
2019-01-29T03:23:05.303Z,998.00
2019-01-29T03:24:05.273Z,997.97
2019-01-29T03:25:05.217Z,997.96
2019-01-29T03:26:05.310Z,998.02
2019-01-29T03:27:05.162Z,997.98
2019-01-29T03:28:05.199Z,997.99
2019-01-29T03:29:05.082Z,998.00
2019-01-29T03:30:05.125Z,997.99
2019-01-29T03:31:05.031Z,997.94
2019-01-29T03:32:05.056Z,997.97
2019-01-29T03:33:04.959Z,997.95
2019-01-29T03:34:05.037Z,997.95
2019-01-29T03:35:04.904Z,997.93
2019-01-29T03:36:04.947Z,997.89
2019-01-29T03:37:04.830Z,997.93
2019-01-29T03:38:04.854Z,997.97
2019-01-29T03:39:04.781Z,997.94
2019-01-29T03:40:04.765Z,997.95
2019-01-29T03:41:04.759Z,997.91
2019-01-29T03:42:04.777Z,997.92
2019-01-29T03:43:04.677Z,997.92
2019-01-29T03:44:04.697Z,997.88
2019-01-29T03:45:04.572Z,997.89
2019-01-29T03:46:04.592Z,997.91
2019-01-29T03:47:04.507Z,997.90
2019-01-29T03:48:04.510Z,997.89
2019-01-29T03:49:04.494Z,997.90
2019-01-29T03:50:04.522Z,997.91
2019-01-29T03:51:04.392Z,997.96
2019-01-29T03:52:04.437Z,997.89
2019-01-29T03:53:04.326Z,997.94
2019-01-29T03:54:04.348Z,997.97
2019-01-29T03:55:04.264Z,998.01
2019-01-29T03:56:04.259Z,998.00
2019-01-29T03:57:04.201Z,998.00
2019-01-29T03:58:04.270Z,998.01
2019-01-29T03:59:04.160Z,998.01
2019-01-29T04:00:04.180Z,998.06
2019-01-29T04:01:04.062Z,998.06
2019-01-29T04:02:04.095Z,998.06
2019-01-29T04:03:03.996Z,998.03
2019-01-29T04:04:03.992Z,998.03
2019-01-29T04:05:03.938Z,998.06
2019-01-29T04:06:04.018Z,998.07
2019-01-29T04:07:03.868Z,998.11
2019-01-29T04:08:03.924Z,998.07
2019-01-29T04:09:03.818Z,998.10
2019-01-29T04:10:03.837Z,998.10
2019-01-29T04:11:03.745Z,998.13
2019-01-29T04:12:03.751Z,998.13
2019-01-29T04:13:03.676Z,998.14
2019-01-29T04:14:03.761Z,998.18
2019-01-29T04:15:03.621Z,998.12
2019-01-29T04:16:03.661Z,998.14
2019-01-29T04:17:03.550Z,998.12
2019-01-29T04:18:05.630Z,998.15
2019-01-29T04:19:03.481Z,998.12
2019-01-29T04:20:03.485Z,998.13
2019-01-29T04:21:03.423Z,998.08
2019-01-29T04:22:03.498Z,998.15
2019-01-29T04:23:03.351Z,998.17
2019-01-29T04:24:03.416Z,998.22
2019-01-29T04:25:03.286Z,998.21
2019-01-29T04:26:03.316Z,998.23
2019-01-29T04:27:03.280Z,998.24
2019-01-29T04:28:03.226Z,998.23
2019-01-29T04:29:03.194Z,998.19
2019-01-29T04:30:03.138Z,998.22
2019-01-29T04:31:03.100Z,998.18
2019-01-29T04:32:03.149Z,998.23
2019-01-29T04:33:03.060Z,998.26
2019-01-29T04:34:03.062Z,998.26
2019-01-29T04:35:02.979Z,998.23
2019-01-29T04:36:02.985Z,998.24
2019-01-29T04:37:02.923Z,998.23
2019-01-29T04:38:02.985Z,998.23
2019-01-29T04:39:02.840Z,998.21
2019-01-29T04:40:02.900Z,998.22
2019-01-29T04:41:02.769Z,998.21
2019-01-29T04:42:02.819Z,998.19
2019-01-29T04:43:02.709Z,998.22
2019-01-29T04:44:02.745Z,998.23
2019-01-29T04:45:02.643Z,998.24
2019-01-29T04:46:02.637Z,998.24
2019-01-29T04:47:02.586Z,998.20
2019-01-29T04:48:02.642Z,998.24
2019-01-29T04:49:02.532Z,998.22
2019-01-29T04:50:02.557Z,998.26
2019-01-29T04:51:02.458Z,998.22
2019-01-29T04:52:02.564Z,998.24
2019-01-29T04:53:02.389Z,998.25
2019-01-29T04:54:02.372Z,998.23
2019-01-29T04:55:02.331Z,998.25
2019-01-29T04:56:02.389Z,998.24
2019-01-29T04:57:02.303Z,998.26
2019-01-29T04:58:02.328Z,998.19
2019-01-29T04:59:02.185Z,998.18
2019-01-29T05:00:02.219Z,998.23
2019-01-29T05:01:02.166Z,998.15
2019-01-29T05:02:02.113Z,998.17
2019-01-29T05:03:02.057Z,998.22
2019-01-29T05:04:02.171Z,998.20
2019-01-29T05:05:02.014Z,998.15
2019-01-29T05:06:02.040Z,998.14
2019-01-29T05:07:01.972Z,998.14
2019-01-29T05:08:01.969Z,998.15
2019-01-29T05:09:01.888Z,998.12
2019-01-29T05:10:01.867Z,998.14
2019-01-29T05:11:01.813Z,998.12
2019-01-29T05:12:01.897Z,998.11
2019-01-29T05:13:01.813Z,998.07
2019-01-29T05:14:01.786Z,998.04
2019-01-29T05:15:01.674Z,998.06
2019-01-29T05:16:01.692Z,998.12
2019-01-29T05:17:01.644Z,998.05
2019-01-29T05:18:01.699Z,998.06
2019-01-29T05:19:01.559Z,998.08
2019-01-29T05:20:01.632Z,998.05
2019-01-29T05:21:01.502Z,998.06
2019-01-29T05:22:01.537Z,998.05
2019-01-29T05:23:01.417Z,998.06
2019-01-29T05:24:06.897Z,998.12
2019-01-29T05:25:01.361Z,998.11
2019-01-29T05:26:01.366Z,998.10
2019-01-29T05:27:01.288Z,998.06
2019-01-29T05:28:01.363Z,998.11
2019-01-29T05:29:01.230Z,998.12
2019-01-29T05:30:02.315Z,998.14
2019-01-29T05:31:01.166Z,998.15
2019-01-29T05:32:01.181Z,998.15
2019-01-29T05:33:01.088Z,998.20
2019-01-29T05:34:03.144Z,998.18
2019-01-29T05:35:01.046Z,998.12
2019-01-29T05:36:01.114Z,998.12
2019-01-29T05:37:00.983Z,998.13
2019-01-29T05:38:04.064Z,998.14
2019-01-29T05:39:00.909Z,998.13
2019-01-29T05:40:07.494Z,998.14
2019-01-29T05:41:00.831Z,998.18
2019-01-29T05:42:01.862Z,998.16
2019-01-29T05:43:00.775Z,998.19
2019-01-29T05:44:00.761Z,998.17
2019-01-29T05:45:00.714Z,998.20
2019-01-29T05:46:00.791Z,998.20
2019-01-29T05:47:00.677Z,998.21
2019-01-29T05:48:00.671Z,998.24
2019-01-29T05:49:00.605Z,998.19
2019-01-29T05:50:00.605Z,998.23
2019-01-29T05:51:00.529Z,998.21
2019-01-29T05:52:01.559Z,998.20
2019-01-29T05:53:00.447Z,998.21
2019-01-29T05:54:01.543Z,998.24
2019-01-29T05:55:00.402Z,998.23
2019-01-29T05:56:00.423Z,998.21
2019-01-29T05:57:00.332Z,998.23
2019-01-29T05:58:00.353Z,998.21
2019-01-29T05:59:00.271Z,998.24
2019-01-29T06:00:00.261Z,998.23
2019-01-29T06:01:00.188Z,998.17
2019-01-29T06:02:07.011Z,998.14
2019-01-29T06:03:00.117Z,998.13
2019-01-29T06:04:01.212Z,998.17
2019-01-29T06:05:00.087Z,998.18
2019-01-29T06:06:01.111Z,998.15
2019-01-29T06:07:00.008Z,998.22
2019-01-29T06:08:06.957Z,998.22
2019-01-29T06:08:59.953Z,998.24
2019-01-29T06:10:00.297Z,998.17
2019-01-29T06:10:59.867Z,998.22
2019-01-29T06:12:06.496Z,998.21
2019-01-29T06:12:59.801Z,998.19
2019-01-29T06:14:00.872Z,998.21
2019-01-29T06:14:59.764Z,998.24
2019-01-29T06:15:59.736Z,998.26
2019-01-29T06:16:59.684Z,998.28
2019-01-29T06:18:00.692Z,998.26
2019-01-29T06:18:59.612Z,998.28
2019-01-29T06:20:06.507Z,998.26
2019-01-29T06:20:59.546Z,998.26
2019-01-29T06:22:15.535Z,998.28
2019-01-29T06:22:59.503Z,998.30
2019-01-29T06:24:00.512Z,998.28
2019-01-29T06:24:59.416Z,998.25
2019-01-29T06:25:59.486Z,998.32
2019-01-29T06:26:59.358Z,998.32
2019-01-29T06:28:05.957Z,998.23
2019-01-29T06:28:59.302Z,998.30
2019-01-29T06:30:00.342Z,998.31
2019-01-29T06:30:59.240Z,998.28
2019-01-29T06:31:59.308Z,998.33
2019-01-29T06:32:59.157Z,998.30
2019-01-29T06:34:01.243Z,998.29
2019-01-29T06:34:59.088Z,998.33
2019-01-29T06:36:06.075Z,998.30
2019-01-29T06:36:59.023Z,998.32
2019-01-29T06:38:00.262Z,998.35
2019-01-29T06:38:58.972Z,998.34
2019-01-29T06:39:58.945Z,998.34
2019-01-29T06:40:59.058Z,998.38
2019-01-29T06:41:58.854Z,998.40
2019-01-29T06:42:58.958Z,998.39
2019-01-29T06:43:58.793Z,998.44
2019-01-29T06:44:59.901Z,998.36
2019-01-29T06:45:58.737Z,998.40
2019-01-29T06:46:59.804Z,998.39
2019-01-29T06:47:58.677Z,998.41
2019-01-29T06:49:00.724Z,998.37
2019-01-29T06:49:58.618Z,998.38
2019-01-29T06:50:59.720Z,998.37
2019-01-29T06:51:58.544Z,998.44
2019-01-29T06:52:59.638Z,998.37
2019-01-29T06:53:58.543Z,998.38
2019-01-29T06:54:59.549Z,998.46
2019-01-29T06:55:58.417Z,998.34
2019-01-29T06:56:58.391Z,998.41
2019-01-29T06:57:58.436Z,998.39
2019-01-29T06:58:58.314Z,998.39
2019-01-29T06:59:58.444Z,998.40
2019-01-29T07:00:58.237Z,998.34
2019-01-29T07:02:00.414Z,998.38
2019-01-29T07:02:58.180Z,998.40
2019-01-29T07:03:58.227Z,998.38
2019-01-29T07:04:58.173Z,998.38
2019-01-29T07:05:58.120Z,998.40
2019-01-29T07:06:58.066Z,998.37
2019-01-29T07:07:58.023Z,998.38
2019-01-29T07:08:57.993Z,998.37
2019-01-29T07:09:57.972Z,998.38
2019-01-29T07:10:57.920Z,998.41
2019-01-29T07:11:57.893Z,998.43
2019-01-29T07:12:57.885Z,998.44
2019-01-29T07:13:57.832Z,998.40
2019-01-29T07:14:57.794Z,998.43
2019-01-29T07:15:57.763Z,998.42
2019-01-29T07:16:57.771Z,998.49
2019-01-29T07:17:57.755Z,998.53
2019-01-29T07:18:57.731Z,998.48
2019-01-29T07:19:57.650Z,998.47
2019-01-29T07:20:57.630Z,998.51
2019-01-29T07:21:57.594Z,998.55
2019-01-29T07:22:57.662Z,998.55
2019-01-29T07:23:57.540Z,998.57
2019-01-29T07:24:57.526Z,998.57
2019-01-29T07:25:57.472Z,998.51
2019-01-29T07:26:57.457Z,998.55
2019-01-29T07:27:57.402Z,998.54
2019-01-29T07:28:57.373Z,998.54
2019-01-29T07:29:58.430Z,998.54
2019-01-29T07:30:57.327Z,998.59
2019-01-29T07:31:57.247Z,998.61
2019-01-29T07:32:57.322Z,998.62
2019-01-29T07:33:57.192Z,998.63
2019-01-29T07:34:57.150Z,998.63
2019-01-29T07:35:57.112Z,998.59
2019-01-29T07:36:57.219Z,998.60
2019-01-29T07:37:57.039Z,998.66
2019-01-29T07:38:57.019Z,998.67
2019-01-29T07:39:57.138Z,998.62
2019-01-29T07:40:56.957Z,998.62
2019-01-29T07:41:57.050Z,998.62
2019-01-29T07:42:56.879Z,998.60
2019-01-29T07:43:56.949Z,998.61
2019-01-29T07:44:56.832Z,998.66
2019-01-29T07:45:56.787Z,998.67
2019-01-29T07:46:56.777Z,998.68
2019-01-29T07:47:56.735Z,998.65
2019-01-29T07:48:56.689Z,998.68
2019-01-29T07:49:56.652Z,998.65
2019-01-29T07:50:56.673Z,998.59
2019-01-29T07:51:56.630Z,998.58
2019-01-29T07:52:56.562Z,998.61
2019-01-29T07:53:56.533Z,998.60
2019-01-29T07:54:56.540Z,998.60
2019-01-29T07:55:56.478Z,998.60
2019-01-29T07:56:56.564Z,998.57
2019-01-29T07:57:56.426Z,998.59
2019-01-29T07:58:56.468Z,998.59
2019-01-29T07:59:56.348Z,998.60
2019-01-29T08:00:56.367Z,998.55
2019-01-29T08:01:56.275Z,998.56
2019-01-29T08:02:56.320Z,998.58
2019-01-29T08:03:56.203Z,998.60
2019-01-29T08:04:56.178Z,998.57
2019-01-29T08:05:56.167Z,998.59
2019-01-29T08:06:56.100Z,998.54
2019-01-29T08:07:56.122Z,998.55
2019-01-29T08:08:56.052Z,998.54
2019-01-29T08:09:56.013Z,998.54
2019-01-29T08:10:55.978Z,998.56
2019-01-29T08:11:55.996Z,998.56
2019-01-29T08:12:56.694Z,998.57
2019-01-29T08:13:55.915Z,998.56
2019-01-29T08:14:55.880Z,998.60
2019-01-29T08:15:56.051Z,998.62
2019-01-29T08:16:55.790Z,998.65
2019-01-29T08:17:55.818Z,998.62
2019-01-29T08:18:55.728Z,998.62
2019-01-29T08:19:55.803Z,998.61
2019-01-29T08:20:55.717Z,998.59
2019-01-29T08:21:55.694Z,998.58
2019-01-29T08:22:55.594Z,998.58
2019-01-29T08:23:55.618Z,998.59
2019-01-29T08:25:01.813Z,998.58
2019-01-29T08:25:55.699Z,998.58
2019-01-29T08:26:55.458Z,998.59
2019-01-29T08:27:55.442Z,998.56
2019-01-29T08:28:55.398Z,998.59
2019-01-29T08:29:55.364Z,998.57
2019-01-29T08:30:55.319Z,998.57
2019-01-29T08:31:55.306Z,998.58
2019-01-29T08:32:55.246Z,998.56
2019-01-29T08:33:55.337Z,998.56
2019-01-29T08:34:55.215Z,998.53
2019-01-29T08:35:57.354Z,998.54
2019-01-29T08:36:55.341Z,998.51
2019-01-29T08:37:55.145Z,998.56
2019-01-29T08:38:55.098Z,998.56
2019-01-29T08:39:55.142Z,998.52
2019-01-29T08:40:55.062Z,998.52
2019-01-29T08:41:56.092Z,998.52
2019-01-29T08:42:54.946Z,998.50
2019-01-29T08:43:55.061Z,998.52
2019-01-29T08:44:54.933Z,998.51
2019-01-29T08:45:54.902Z,998.50
2019-01-29T08:46:54.852Z,998.55
2019-01-29T08:47:54.783Z,998.51
2019-01-29T08:48:54.768Z,998.51
2019-01-29T08:49:54.786Z,998.52
2019-01-29T08:50:54.719Z,998.52
2019-01-29T08:51:54.650Z,998.50
2019-01-29T08:52:55.748Z,998.53
2019-01-29T08:53:54.589Z,998.52
2019-01-29T08:54:54.559Z,998.50
2019-01-29T08:55:54.507Z,998.54
2019-01-29T08:56:54.490Z,998.43
2019-01-29T08:57:54.533Z,998.43
2019-01-29T08:58:54.415Z,998.41
2019-01-29T08:59:54.393Z,998.40
2019-01-29T09:00:54.361Z,998.43
2019-01-29T09:01:55.463Z,998.41
2019-01-29T09:02:54.348Z,998.42
2019-01-29T09:03:54.306Z,998.45
2019-01-29T09:04:54.265Z,998.40
2019-01-29T09:05:55.349Z,998.41
2019-01-29T09:06:54.307Z,998.35
2019-01-29T09:07:54.157Z,998.38
2019-01-29T09:08:54.115Z,998.35
2019-01-29T09:09:54.099Z,998.38
2019-01-29T09:10:54.044Z,998.37
2019-01-29T09:11:55.073Z,998.33
2019-01-29T09:12:53.981Z,998.35
2019-01-29T09:13:53.992Z,998.33
2019-01-29T09:14:53.921Z,998.36
2019-01-29T09:15:53.943Z,998.34
2019-01-29T09:16:53.833Z,998.32
2019-01-29T09:17:53.856Z,998.35
2019-01-29T09:18:53.777Z,998.28
2019-01-29T09:19:53.762Z,998.34
2019-01-29T09:20:53.744Z,998.34
2019-01-29T09:21:53.671Z,998.35
2019-01-29T09:22:53.635Z,998.31
2019-01-29T09:23:53.694Z,998.32
2019-01-29T09:24:53.560Z,998.28
2019-01-29T09:25:55.664Z,998.28
2019-01-29T09:26:53.504Z,998.26
2019-01-29T09:27:53.476Z,998.24
2019-01-29T09:28:53.564Z,998.30
2019-01-29T09:29:53.429Z,998.26
2019-01-29T09:30:53.371Z,998.23
2019-01-29T09:31:53.439Z,998.24
2019-01-29T09:32:53.343Z,998.18
2019-01-29T09:33:53.280Z,998.16
2019-01-29T09:34:53.256Z,998.16
2019-01-29T09:35:53.207Z,998.13
2019-01-29T09:36:53.273Z,998.16
2019-01-29T09:37:53.145Z,998.14
2019-01-29T09:38:53.172Z,998.11
2019-01-29T09:39:53.086Z,998.14
2019-01-29T09:40:53.099Z,998.13
2019-01-29T09:41:53.027Z,998.14
2019-01-29T09:42:52.990Z,998.07
2019-01-29T09:43:52.947Z,998.13
2019-01-29T09:44:53.015Z,998.16
2019-01-29T09:45:52.894Z,998.13
2019-01-29T09:46:52.950Z,998.11
2019-01-29T09:47:52.815Z,998.10
2019-01-29T09:48:52.786Z,998.13
2019-01-29T09:49:52.847Z,998.10
2019-01-29T09:50:52.719Z,998.11
2019-01-29T09:51:52.760Z,998.11
2019-01-29T09:52:52.667Z,998.13
2019-01-29T09:53:52.663Z,998.08
2019-01-29T09:54:52.602Z,998.10
2019-01-29T09:55:52.560Z,998.05
2019-01-29T09:56:52.596Z,998.07
2019-01-29T09:57:52.532Z,998.06
2019-01-29T09:58:52.476Z,998.07
2019-01-29T10:00:00.279Z,998.03
2019-01-29T10:00:52.401Z,998.06
2019-01-29T10:01:52.437Z,998.05
2019-01-29T10:02:52.342Z,998.01
2019-01-29T10:03:53.352Z,998.01
2019-01-29T10:04:52.296Z,998.01
2019-01-29T10:06:16.002Z,998.04
2019-01-29T10:06:52.223Z,998.00
2019-01-29T10:07:52.186Z,998.00
2019-01-29T10:08:52.133Z,998.04
2019-01-29T10:09:53.201Z,997.97
2019-01-29T10:10:52.099Z,998.02
2019-01-29T10:12:01.088Z,997.99
2019-01-29T10:12:52.048Z,997.97
2019-01-29T10:13:53.045Z,997.91
2019-01-29T10:14:51.969Z,997.93
2019-01-29T10:15:58.588Z,997.90
2019-01-29T10:16:51.920Z,997.91
2019-01-29T10:17:51.972Z,997.88
2019-01-29T10:18:51.857Z,997.91
2019-01-29T10:19:51.852Z,997.87
2019-01-29T10:20:51.801Z,997.88
2019-01-29T10:21:51.781Z,997.83
2019-01-29T10:22:51.709Z,997.81
2019-01-29T10:23:51.746Z,997.81
2019-01-29T10:24:51.636Z,997.77
2019-01-29T10:26:51.551Z,997.88
2019-01-29T10:27:58.551Z,997.86
2019-01-29T10:28:51.509Z,997.83
2019-01-29T10:29:52.501Z,997.87
2019-01-29T10:30:51.421Z,997.82
2019-01-29T10:31:58.061Z,997.82
2019-01-29T10:32:51.369Z,997.84
2019-01-29T10:33:51.366Z,997.81
2019-01-29T10:34:51.296Z,997.80
2019-01-29T10:35:51.374Z,997.79
2019-01-29T10:36:51.255Z,997.75
2019-01-29T10:37:51.206Z,997.75
2019-01-29T10:38:51.157Z,997.69
2019-01-29T10:39:51.159Z,997.72
2019-01-29T10:40:51.101Z,997.68
2019-01-29T10:41:51.081Z,997.64
2019-01-29T10:42:51.038Z,997.64
2019-01-29T10:43:51.015Z,997.65
2019-01-29T10:44:50.979Z,997.63
2019-01-29T10:45:51.036Z,997.60
2019-01-29T10:46:50.910Z,997.59
2019-01-29T10:47:50.864Z,997.64
2019-01-29T10:48:50.839Z,997.59
2019-01-29T10:49:50.855Z,997.55
2019-01-29T10:50:50.801Z,997.53
2019-01-29T10:51:50.730Z,997.53
2019-01-29T10:52:50.712Z,997.49
2019-01-29T10:53:50.830Z,997.44
2019-01-29T10:54:50.652Z,997.45
2019-01-29T10:55:50.704Z,997.47
2019-01-29T10:56:50.575Z,997.45
2019-01-29T10:57:50.626Z,997.42
2019-01-29T10:58:50.509Z,997.41
2019-01-29T10:59:50.501Z,997.41
2019-01-29T11:00:50.468Z,997.46
2019-01-29T11:01:50.430Z,997.39
2019-01-29T11:02:50.408Z,997.37
2019-01-29T11:03:50.361Z,997.39
2019-01-29T11:04:50.340Z,997.36
2019-01-29T11:05:50.379Z,997.36
2019-01-29T11:06:50.334Z,997.31
2019-01-29T11:07:50.276Z,997.33
2019-01-29T11:08:50.249Z,997.26
2019-01-29T11:09:50.226Z,997.27
2019-01-29T11:10:50.144Z,997.27
2019-01-29T11:11:51.116Z,997.25
2019-01-29T11:12:50.056Z,997.26
2019-01-29T11:13:50.031Z,997.26
2019-01-29T11:14:50.005Z,997.24
2019-01-29T11:15:49.965Z,997.18
2019-01-29T11:16:49.935Z,997.20
2019-01-29T11:17:49.937Z,997.19
2019-01-29T11:18:49.866Z,997.17
2019-01-29T11:19:49.963Z,997.16
2019-01-29T11:20:49.797Z,997.16
2019-01-29T11:21:49.855Z,997.17
2019-01-29T11:22:49.767Z,997.16
2019-01-29T11:23:49.797Z,997.15
2019-01-29T11:24:49.702Z,997.15
2019-01-29T11:25:55.580Z,997.17
2019-01-29T11:26:49.603Z,997.11
2019-01-29T11:27:49.700Z,997.11
2019-01-29T11:28:49.555Z,997.12
2019-01-29T11:29:49.610Z,997.07
2019-01-29T11:30:49.637Z,997.06
2019-01-29T11:31:49.515Z,997.08
2019-01-29T11:32:49.407Z,997.06
2019-01-29T11:33:50.458Z,997.08
2019-01-29T11:34:49.349Z,997.05
2019-01-29T11:35:49.320Z,997.06
2019-01-29T11:36:49.335Z,996.99
2019-01-29T11:37:49.275Z,997.00
2019-01-29T11:38:49.242Z,996.96
2019-01-29T11:39:49.215Z,996.96
2019-01-29T11:40:49.176Z,997.03
2019-01-29T11:41:49.122Z,997.00
2019-01-29T11:42:49.109Z,996.97
2019-01-29T11:43:49.081Z,996.95
2019-01-29T11:44:49.038Z,996.92
2019-01-29T11:45:49.025Z,996.96
2019-01-29T11:46:49.010Z,996.93
2019-01-29T11:47:48.963Z,996.92
2019-01-29T11:48:48.949Z,996.91
2019-01-29T11:49:49.029Z,996.90
2019-01-29T11:50:48.852Z,996.87
2019-01-29T11:51:50.880Z,996.89
2019-01-29T11:52:48.834Z,996.91
2019-01-29T11:53:48.850Z,996.85
2019-01-29T11:54:50.393Z,996.91
2019-01-29T11:55:48.762Z,996.83
2019-01-29T11:56:48.642Z,996.82
2019-01-29T11:57:57.614Z,996.84
2019-01-29T11:58:48.602Z,996.80
2019-01-29T11:59:48.688Z,996.82
2019-01-29T12:00:48.514Z,996.77
2019-01-29T12:01:49.614Z,996.78
2019-01-29T12:02:48.460Z,996.74
2019-01-29T12:03:55.166Z,996.73
2019-01-29T12:04:48.391Z,996.75
2019-01-29T12:05:48.526Z,996.73
2019-01-29T12:06:48.341Z,996.71
2019-01-29T12:07:49.463Z,996.71
2019-01-29T12:08:48.276Z,996.72
2019-01-29T12:09:50.385Z,996.64
2019-01-29T12:10:48.196Z,996.65
2019-01-29T12:11:48.189Z,996.65
2019-01-29T12:12:48.135Z,996.63
2019-01-29T12:13:48.090Z,996.62
2019-01-29T12:14:48.074Z,996.60
2019-01-29T12:15:48.033Z,996.59
2019-01-29T12:16:47.997Z,996.60
2019-01-29T12:17:47.966Z,996.54
2019-01-29T12:18:47.954Z,996.51
2019-01-29T12:19:47.908Z,996.50
2019-01-29T12:20:47.878Z,996.61
2019-01-29T12:21:47.852Z,996.47
2019-01-29T12:22:47.823Z,996.50
2019-01-29T12:23:47.773Z,996.51
2019-01-29T12:24:47.741Z,996.53
2019-01-29T12:25:47.711Z,996.53
2019-01-29T12:26:47.710Z,996.51
2019-01-29T12:27:47.652Z,996.40
2019-01-29T12:28:47.607Z,996.43